sensor_id;sensor_type;location;lat;lon;timestamp;pressure;altitude;pressure_sealevel;temperature;humidity
7182;BME280;3632;42.724;23.298;2023-04-02T00:01:16;94519.50;;;9.46;72.11
7182;BME280;3632;42.724;23.298;2023-04-02T00:04:13;94512.03;;;9.45;71.98
7182;BME280;3632;42.724;23.298;2023-04-02T00:06:47;94461.75;;;8.99;71.56
7182;BME280;3632;42.724;23.298;2023-04-02T00:09:34;94428.03;;;8.97;70.71
7182;BME280;3632;42.724;23.298;2023-04-02T00:12:12;94463.44;;;9.29;70.52
7182;BME280;3632;42.724;23.298;2023-04-02T00:14:46;94504.66;;;9.51;70.19
7182;BME280;3632;42.724;23.298;2023-04-02T00:17:13;94506.78;;;9.46;70.07
7182;BME280;3632;42.724;23.298;2023-04-02T00:19:45;94467.00;;;9.16;69.34
7182;BME280;3632;42.724;23.298;2023-04-02T00:22:17;94506.13;;;9.44;69.55
7182;BME280;3632;42.724;23.298;2023-04-02T00:24:44;94506.66;;;9.48;69.33
7182;BME280;3632;42.724;23.298;2023-04-02T00:27:13;94519.75;;;9.34;69.69
7182;BME280;3632;42.724;23.298;2023-04-02T00:29:45;94505.06;;;9.56;69.27
7182;BME280;3632;42.724;23.298;2023-04-02T00:32:17;94508.03;;;9.61;68.74
7182;BME280;3632;42.724;23.298;2023-04-02T00:34:47;94496.25;;;9.60;67.79
7182;BME280;3632;42.724;23.298;2023-04-02T00:37:17;94339.00;;;8.09;67.90
7182;BME280;3632;42.724;23.298;2023-04-02T00:39:49;94383.50;;;8.13;67.44
7182;BME280;3632;42.724;23.298;2023-04-02T00:42:17;94501.47;;;9.69;67.69
7182;BME280;3632;42.724;23.298;2023-04-02T00:44:45;94503.47;;;9.75;67.84
7182;BME280;3632;42.724;23.298;2023-04-02T00:47:17;94503.34;;;9.76;67.15
7182;BME280;3632;42.724;23.298;2023-04-02T00:49:48;94468.66;;;9.56;67.10
7182;BME280;3632;42.724;23.298;2023-04-02T00:52:17;94508.56;;;9.75;67.04
7182;BME280;3632;42.724;23.298;2023-04-02T00:54:49;94498.53;;;9.54;66.63
7182;BME280;3632;42.724;23.298;2023-04-02T00:57:20;94315.53;;;8.56;66.56
7182;BME280;3632;42.724;23.298;2023-04-02T00:59:54;94493.81;;;9.49;68.95
7182;BME280;3632;42.724;23.298;2023-04-02T01:02:26;94498.25;;;9.57;70.73
7182;BME280;3632;42.724;23.298;2023-04-02T01:04:57;94504.41;;;9.64;70.38
7182;BME280;3632;42.724;23.298;2023-04-02T01:07:47;94503.47;;;9.46;71.92
7182;BME280;3632;42.724;23.298;2023-04-02T01:10:37;94484.00;;;8.25;72.91
7182;BME280;3632;42.724;23.298;2023-04-02T01:13:15;94508.81;;;9.52;73.63
7182;BME280;3632;42.724;23.298;2023-04-02T01:15:50;94506.09;;;9.25;73.82
7182;BME280;3632;42.724;23.298;2023-04-02T01:18:40;94513.72;;;9.15;75.57
7182;BME280;3632;42.724;23.298;2023-04-02T01:24:18;94413.09;;;8.03;78.20
7182;BME280;3632;42.724;23.298;2023-04-02T01:26:51;94153.31;;;5.47;80.52
7182;BME280;3632;42.724;23.298;2023-04-02T01:29:21;94520.19;;;8.38;81.95
7182;BME280;3632;42.724;23.298;2023-04-02T01:31:50;94543.81;;;7.65;83.78
7182;BME280;3632;42.724;23.298;2023-04-02T01:34:22;94039.00;;;4.34;81.94
7182;BME280;3632;42.724;23.298;2023-04-02T01:37:01;94514.75;;;7.26;83.63
7182;BME280;3632;42.724;23.298;2023-04-02T01:39:40;94534.31;;;8.10;84.69
7182;BME280;3632;42.724;23.298;2023-04-02T01:42:14;94525.25;;;7.97;85.90
7182;BME280;3632;42.724;23.298;2023-04-02T01:44:47;94533.09;;;7.94;86.05
7182;BME280;3632;42.724;23.298;2023-04-02T01:47:16;94546.00;;;8.22;85.81
7182;BME280;3632;42.724;23.298;2023-04-02T01:49:44;94532.34;;;8.35;84.22
7182;BME280;3632;42.724;23.298;2023-04-02T01:52:14;94321.78;;;7.10;84.03
7182;BME280;3632;42.724;23.298;2023-04-02T01:54:42;94526.63;;;8.42;84.11
7182;BME280;3632;42.724;23.298;2023-04-02T01:57:09;94465.28;;;7.96;85.25
7182;BME280;3632;42.724;23.298;2023-04-02T01:59:36;94524.78;;;8.44;85.22
7182;BME280;3632;42.724;23.298;2023-04-02T02:02:06;94522.19;;;8.35;85.24
7182;BME280;3632;42.724;23.298;2023-04-02T02:04:34;94510.84;;;8.39;84.90
7182;BME280;3632;42.724;23.298;2023-04-02T02:07:01;94377.53;;;7.31;85.78
7182;BME280;3632;42.724;23.298;2023-04-02T02:09:31;94555.28;;;8.12;86.48
7182;BME280;3632;42.724;23.298;2023-04-02T02:12:00;94518.19;;;8.21;85.49
7182;BME280;3632;42.724;23.298;2023-04-02T02:14:29;94452.03;;;7.92;85.42
7182;BME280;3632;42.724;23.298;2023-04-02T02:16:58;94512.84;;;8.35;83.38
7182;BME280;3632;42.724;23.298;2023-04-02T02:19:30;93970.75;;;4.80;82.73
7182;BME280;3632;42.724;23.298;2023-04-02T02:22:07;94507.94;;;8.43;82.50
7182;BME280;3632;42.724;23.298;2023-04-02T02:24:35;94479.16;;;8.33;82.33
7182;BME280;3632;42.724;23.298;2023-04-02T02:30:27;94427.47;;;7.93;81.30
7182;BME280;3632;42.724;23.298;2023-04-02T02:32:59;94509.84;;;8.51;82.05
7182;BME280;3632;42.724;23.298;2023-04-02T02:35:32;94510.38;;;8.54;81.41
7182;BME280;3632;42.724;23.298;2023-04-02T02:38:31;93895.00;;;4.48;80.80
7182;BME280;3632;42.724;23.298;2023-04-02T02:41:06;94471.06;;;7.66;80.95
7182;BME280;3632;42.724;23.298;2023-04-02T02:43:40;94513.25;;;8.40;81.73
7182;BME280;3632;42.724;23.298;2023-04-02T02:46:09;94516.75;;;8.39;81.68
7182;BME280;3632;42.724;23.298;2023-04-02T02:48:40;94601.50;;;8.16;81.92
7182;BME280;3632;42.724;23.298;2023-04-02T02:51:16;94507.06;;;8.33;82.32
7182;BME280;3632;42.724;23.298;2023-04-02T02:53:45;94447.44;;;7.86;82.61
7182;BME280;3632;42.724;23.298;2023-04-02T02:56:14;94495.84;;;7.94;82.81
7182;BME280;3632;42.724;23.298;2023-04-02T02:58:41;94515.72;;;8.10;83.08
7182;BME280;3632;42.724;23.298;2023-04-02T03:01:08;94510.88;;;8.07;83.46
7182;BME280;3632;42.724;23.298;2023-04-02T03:03:35;94515.53;;;8.02;83.31
7182;BME280;3632;42.724;23.298;2023-04-02T03:06:05;94512.97;;;7.81;83.05
7182;BME280;3632;42.724;23.298;2023-04-02T03:08:38;94434.75;;;7.45;81.85
7182;BME280;3632;42.724;23.298;2023-04-02T03:11:10;94516.94;;;7.95;82.46
7182;BME280;3632;42.724;23.298;2023-04-02T03:13:42;94522.16;;;7.93;83.18
7182;BME280;3632;42.724;23.298;2023-04-02T03:16:16;94370.06;;;6.98;82.81
7182;BME280;3632;42.724;23.298;2023-04-02T03:18:49;94298.72;;;6.61;82.15
7182;BME280;3632;42.724;23.298;2023-04-02T03:21:25;94519.81;;;8.01;81.68
7182;BME280;3632;42.724;23.298;2023-04-02T03:23:58;94531.19;;;8.07;81.66
7182;BME280;3632;42.724;23.298;2023-04-02T03:26:32;94518.75;;;8.04;80.32
7182;BME280;3632;42.724;23.298;2023-04-02T03:29:05;94520.47;;;7.51;81.48
7182;BME280;3632;42.724;23.298;2023-04-02T03:31:37;94523.44;;;7.88;81.53
7182;BME280;3632;42.724;23.298;2023-04-02T03:34:11;94521.63;;;7.78;81.58
7182;BME280;3632;42.724;23.298;2023-04-02T03:36:41;94524.97;;;7.79;80.72
7182;BME280;3632;42.724;23.298;2023-04-02T03:39:17;94522.06;;;7.84;81.68
7182;BME280;3632;42.724;23.298;2023-04-02T03:41:47;94537.09;;;7.75;81.60
7182;BME280;3632;42.724;23.298;2023-04-02T03:44:20;94541.03;;;7.68;82.78
7182;BME280;3632;42.724;23.298;2023-04-02T03:46:52;94253.31;;;5.27;84.18
7182;BME280;3632;42.724;23.298;2023-04-02T03:49:28;94528.84;;;7.19;84.84
7182;BME280;3632;42.724;23.298;2023-04-02T03:52:00;94526.03;;;7.33;84.92
7182;BME280;3632;42.724;23.298;2023-04-02T03:54:30;94543.34;;;7.28;85.85
7182;BME280;3632;42.724;23.298;2023-04-02T03:56:57;94423.22;;;6.66;85.34
7182;BME280;3632;42.724;23.298;2023-04-02T03:59:31;94560.16;;;7.29;84.26
7182;BME280;3632;42.724;23.298;2023-04-02T04:02:05;94526.78;;;7.56;83.19
7182;BME280;3632;42.724;23.298;2023-04-02T04:04:38;94438.31;;;7.10;82.12
7182;BME280;3632;42.724;23.298;2023-04-02T04:07:09;94646.97;;;7.65;81.97
7182;BME280;3632;42.724;23.298;2023-04-02T04:09:40;94538.75;;;7.65;82.58
7182;BME280;3632;42.724;23.298;2023-04-02T04:12:19;94535.88;;;7.59;82.50
7182;BME280;3632;42.724;23.298;2023-04-02T04:14:53;94547.34;;;7.42;83.52
7182;BME280;3632;42.724;23.298;2023-04-02T04:17:26;94496.84;;;7.07;84.00
7182;BME280;3632;42.724;23.298;2023-04-02T04:20:00;94545.28;;;7.14;84.88
7182;BME280;3632;42.724;23.298;2023-04-02T04:22:32;94559.13;;;6.99;86.26
7182;BME280;3632;42.724;23.298;2023-04-02T04:25:02;94569.97;;;6.78;87.46
7182;BME280;3632;42.724;23.298;2023-04-02T04:27:35;94569.94;;;6.56;88.73
7182;BME280;3632;42.724;23.298;2023-04-02T04:30:15;94577.75;;;5.60;90.44
7182;BME280;3632;42.724;23.298;2023-04-02T04:32:46;94569.13;;;6.45;90.86
7182;BME280;3632;42.724;23.298;2023-04-02T04:35:18;94564.53;;;6.72;90.57
7182;BME280;3632;42.724;23.298;2023-04-02T04:37:47;94539.91;;;6.52;90.12
7182;BME280;3632;42.724;23.298;2023-04-02T04:40:27;94557.28;;;7.12;88.00
7182;BME280;3632;42.724;23.298;2023-04-02T04:42:58;94576.84;;;7.32;87.01
7182;BME280;3632;42.724;23.298;2023-04-02T04:45:35;94557.59;;;7.41;86.16
7182;BME280;3632;42.724;23.298;2023-04-02T04:48:06;94556.63;;;7.53;84.73
7182;BME280;3632;42.724;23.298;2023-04-02T04:50:37;94269.28;;;5.61;84.05
7182;BME280;3632;42.724;23.298;2023-04-02T04:53:14;94400.50;;;5.64;83.80
7182;BME280;3632;42.724;23.298;2023-04-02T04:55:44;94574.25;;;7.65;83.13
7182;BME280;3632;42.724;23.298;2023-04-02T04:58:17;94572.88;;;7.61;83.97
7182;BME280;3632;42.724;23.298;2023-04-02T05:00:55;94573.78;;;7.60;84.19
7182;BME280;3632;42.724;23.298;2023-04-02T05:03:29;94428.63;;;6.72;84.00
7182;BME280;3632;42.724;23.298;2023-04-02T05:06:07;94495.44;;;7.25;82.12
7182;BME280;3632;42.724;23.298;2023-04-02T05:08:36;94568.47;;;7.74;82.47
7182;BME280;3632;42.724;23.298;2023-04-02T05:11:09;94570.63;;;7.79;82.69
7182;BME280;3632;42.724;23.298;2023-04-02T05:13:42;94574.44;;;7.73;81.66
7182;BME280;3632;42.724;23.298;2023-04-02T05:16:16;94690.53;;;7.70;82.90
7182;BME280;3632;42.724;23.298;2023-04-02T05:18:48;94582.59;;;7.45;84.23
7182;BME280;3632;42.724;23.298;2023-04-02T05:21:20;94584.69;;;7.29;85.56
7182;BME280;3632;42.724;23.298;2023-04-02T05:23:52;94598.97;;;7.41;85.99
7182;BME280;3632;42.724;23.298;2023-04-02T05:26:24;94590.38;;;7.64;84.80
7182;BME280;3632;42.724;23.298;2023-04-02T05:28:58;94603.75;;;7.66;84.95
7182;BME280;3632;42.724;23.298;2023-04-02T05:31:30;94589.16;;;7.91;84.85
7182;BME280;3632;42.724;23.298;2023-04-02T05:34:03;94531.22;;;7.75;83.89
7182;BME280;3632;42.724;23.298;2023-04-02T05:36:30;94592.84;;;8.30;81.83
7182;BME280;3632;42.724;23.298;2023-04-02T05:38:58;94606.75;;;8.03;82.29
7182;BME280;3632;42.724;23.298;2023-04-02T05:41:27;94557.16;;;7.99;81.56
7182;BME280;3632;42.724;23.298;2023-04-02T05:44:05;94602.22;;;8.18;80.97
7182;BME280;3632;42.724;23.298;2023-04-02T05:46:34;94524.25;;;8.09;79.82
7182;BME280;3632;42.724;23.298;2023-04-02T05:49:06;94639.63;;;8.68;79.56
7182;BME280;3632;42.724;23.298;2023-04-02T05:51:38;94605.47;;;8.82;79.62
7182;BME280;3632;42.724;23.298;2023-04-02T05:54:16;94525.03;;;8.41;78.40
7182;BME280;3632;42.724;23.298;2023-04-02T05:56:51;94603.81;;;9.32;76.28
7182;BME280;3632;42.724;23.298;2023-04-02T05:59:23;94657.41;;;9.50;75.12
7182;BME280;3632;42.724;23.298;2023-04-02T06:01:54;94606.59;;;9.69;74.55
7182;BME280;3632;42.724;23.298;2023-04-02T06:04:27;94501.66;;;9.17;73.91
7182;BME280;3632;42.724;23.298;2023-04-02T06:06:58;94569.63;;;9.75;73.77
7182;BME280;3632;42.724;23.298;2023-04-02T06:09:33;94596.19;;;9.91;74.81
7182;BME280;3632;42.724;23.298;2023-04-02T06:12:21;94603.00;;;10.10;73.62
7182;BME280;3632;42.724;23.298;2023-04-02T06:14:49;94607.16;;;10.11;73.57
7182;BME280;3632;42.724;23.298;2023-04-02T06:17:17;94616.31;;;10.23;73.33
7182;BME280;3632;42.724;23.298;2023-04-02T06:19:45;94599.97;;;10.16;73.85
7182;BME280;3632;42.724;23.298;2023-04-02T06:22:19;94607.47;;;10.37;74.07
7182;BME280;3632;42.724;23.298;2023-04-02T06:24:50;94603.72;;;10.41;74.04
7182;BME280;3632;42.724;23.298;2023-04-02T06:27:22;94553.84;;;9.90;73.67
7182;BME280;3632;42.724;23.298;2023-04-02T06:29:52;94603.44;;;10.53;72.84
7182;BME280;3632;42.724;23.298;2023-04-02T06:32:22;94603.59;;;10.42;74.10
7182;BME280;3632;42.724;23.298;2023-04-02T06:34:50;94598.75;;;10.59;73.81
7182;BME280;3632;42.724;23.298;2023-04-02T06:37:22;94603.03;;;10.68;73.04
7182;BME280;3632;42.724;23.298;2023-04-02T06:39:52;94094.16;;;7.46;73.39
7182;BME280;3632;42.724;23.298;2023-04-02T06:42:22;94589.81;;;10.91;71.98
7182;BME280;3632;42.724;23.298;2023-04-02T06:44:50;94547.59;;;10.79;70.87
7182;BME280;3632;42.724;23.298;2023-04-02T06:47:25;94158.25;;;7.67;69.96
7182;BME280;3632;42.724;23.298;2023-04-02T06:49:57;94606.47;;;11.32;69.62
7182;BME280;3632;42.724;23.298;2023-04-02T06:52:28;94598.75;;;11.42;68.05
7182;BME280;3632;42.724;23.298;2023-04-02T06:54:57;94606.81;;;11.37;68.45
7182;BME280;3632;42.724;23.298;2023-04-02T06:57:25;94406.97;;;10.10;68.50
7182;BME280;3632;42.724;23.298;2023-04-02T06:59:52;94605.97;;;11.46;67.65
7182;BME280;3632;42.724;23.298;2023-04-02T07:02:27;94601.78;;;11.55;67.85
7182;BME280;3632;42.724;23.298;2023-04-02T07:05:00;94362.50;;;10.14;66.90
7182;BME280;3632;42.724;23.298;2023-04-02T07:07:27;94539.59;;;11.29;66.17
7182;BME280;3632;42.724;23.298;2023-04-02T07:09:54;94610.44;;;11.99;65.92
7182;BME280;3632;42.724;23.298;2023-04-02T07:12:23;94619.63;;;11.92;64.66
7182;BME280;3632;42.724;23.298;2023-04-02T07:14:51;94498.06;;;11.19;65.77
7182;BME280;3632;42.724;23.298;2023-04-02T07:17:19;94494.41;;;11.84;73.93
7182;BME280;3632;42.724;23.298;2023-04-02T07:19:47;94559.63;;;12.75;68.07
7182;BME280;3632;42.724;23.298;2023-04-02T07:22:15;94714.66;;;13.71;65.53
7182;BME280;3632;42.724;23.298;2023-04-02T07:24:44;94612.13;;;13.39;59.20
7182;BME280;3632;42.724;23.298;2023-04-02T07:27:13;94282.81;;;10.94;58.99
7182;BME280;3632;42.724;23.298;2023-04-02T07:29:40;94624.94;;;13.13;59.36
7182;BME280;3632;42.724;23.298;2023-04-02T07:32:10;94616.00;;;12.99;60.50
7182;BME280;3632;42.724;23.298;2023-04-02T07:34:38;94623.69;;;12.99;63.20
7182;BME280;3632;42.724;23.298;2023-04-02T07:37:06;94148.53;;;9.88;61.39
7182;BME280;3632;42.724;23.298;2023-04-02T07:39:33;94632.66;;;13.21;60.71
7182;BME280;3632;42.724;23.298;2023-04-02T07:42:01;94624.47;;;13.17;57.21
7182;BME280;3632;42.724;23.298;2023-04-02T07:44:28;94662.91;;;13.08;57.12
7182;BME280;3632;42.724;23.298;2023-04-02T07:46:55;94657.19;;;12.88;55.50
7182;BME280;3632;42.724;23.298;2023-04-02T07:49:24;94632.16;;;13.00;56.87
7182;BME280;3632;42.724;23.298;2023-04-02T07:51:51;94538.84;;;12.52;56.13
7182;BME280;3632;42.724;23.298;2023-04-02T07:54:19;94503.50;;;12.73;66.51
7182;BME280;3632;42.724;23.298;2023-04-02T07:56:45;94631.47;;;13.41;55.86
7182;BME280;3632;42.724;23.298;2023-04-02T07:59:12;94641.66;;;13.33;55.68
7182;BME280;3632;42.724;23.298;2023-04-02T08:01:39;94341.72;;;11.44;56.48
7182;BME280;3632;42.724;23.298;2023-04-02T08:04:16;94514.44;;;12.58;56.96
7182;BME280;3632;42.724;23.298;2023-04-02T08:06:46;94310.66;;;11.49;55.64
7182;BME280;3632;42.724;23.298;2023-04-02T08:09:13;94694.94;;;13.12;55.27
7182;BME280;3632;42.724;23.298;2023-04-02T08:11:41;94617.91;;;13.41;55.75
7182;BME280;3632;42.724;23.298;2023-04-02T08:14:08;94635.06;;;13.56;56.64
7182;BME280;3632;42.724;23.298;2023-04-02T08:16:47;94514.38;;;13.01;55.96
7182;BME280;3632;42.724;23.298;2023-04-02T08:19:16;94749.06;;;13.68;53.77
7182;BME280;3632;42.724;23.298;2023-04-02T08:21:45;94577.03;;;13.23;54.17
7182;BME280;3632;42.724;23.298;2023-04-02T08:24:15;94644.41;;;13.65;54.24
7182;BME280;3632;42.724;23.298;2023-04-02T08:26:43;94624.44;;;13.77;53.53
7182;BME280;3632;42.724;23.298;2023-04-02T08:29:11;94641.53;;;13.68;54.02
7182;BME280;3632;42.724;23.298;2023-04-02T08:31:38;94642.72;;;13.90;53.76
7182;BME280;3632;42.724;23.298;2023-04-02T08:34:05;94649.53;;;14.15;54.01
7182;BME280;3632;42.724;23.298;2023-04-02T08:36:35;94643.13;;;14.19;52.26
7182;BME280;3632;42.724;23.298;2023-04-02T08:39:05;94640.78;;;13.92;52.06
7182;BME280;3632;42.724;23.298;2023-04-02T08:41:39;94043.03;;;9.65;52.71
7182;BME280;3632;42.724;23.298;2023-04-02T08:44:17;93890.78;;;9.52;52.38
7182;BME280;3632;42.724;23.298;2023-04-02T08:46:49;94479.81;;;13.39;52.72
7182;BME280;3632;42.724;23.298;2023-04-02T08:49:24;94255.13;;;11.68;52.43
7182;BME280;3632;42.724;23.298;2023-04-02T08:51:58;94647.38;;;14.61;52.42
7182;BME280;3632;42.724;23.298;2023-04-02T08:54:29;94524.25;;;13.96;52.23
7182;BME280;3632;42.724;23.298;2023-04-02T08:57:01;94012.75;;;10.92;53.31
7182;BME280;3632;42.724;23.298;2023-04-02T08:59:33;94644.13;;;15.07;52.21
7182;BME280;3632;42.724;23.298;2023-04-02T09:02:19;94531.16;;;14.12;52.01
7182;BME280;3632;42.724;23.298;2023-04-02T09:04:49;94355.69;;;13.51;50.57
7182;BME280;3632;42.724;23.298;2023-04-02T09:07:17;94646.69;;;15.32;49.92
7182;BME280;3632;42.724;23.298;2023-04-02T09:09:47;94729.97;;;14.89;48.46
7182;BME280;3632;42.724;23.298;2023-04-02T09:12:18;94308.00;;;13.10;48.57
7182;BME280;3632;42.724;23.298;2023-04-02T09:14:54;94314.59;;;13.53;49.15
7182;BME280;3632;42.724;23.298;2023-04-02T09:17:25;94631.22;;;15.56;48.14
7182;BME280;3632;42.724;23.298;2023-04-02T09:19:55;94216.53;;;12.63;48.77
7182;BME280;3632;42.724;23.298;2023-04-02T09:22:27;94683.41;;;15.24;48.84
7182;BME280;3632;42.724;23.298;2023-04-02T09:24:59;94539.31;;;13.99;50.53
7182;BME280;3632;42.724;23.298;2023-04-02T09:27:28;94530.53;;;14.58;48.68
7182;BME280;3632;42.724;23.298;2023-04-02T09:29:58;94618.66;;;14.98;49.03
7182;BME280;3632;42.724;23.298;2023-04-02T09:32:47;94360.00;;;13.18;48.54
7182;BME280;3632;42.724;23.298;2023-04-02T09:35:17;94608.09;;;14.69;48.52
7182;BME280;3632;42.724;23.298;2023-04-02T09:37:46;94640.00;;;14.90;48.58
7182;BME280;3632;42.724;23.298;2023-04-02T09:40:23;94707.16;;;14.94;47.73
7182;BME280;3632;42.724;23.298;2023-04-02T09:43:04;94465.34;;;14.04;47.90
7182;BME280;3632;42.724;23.298;2023-04-02T09:45:32;94662.09;;;15.32;47.30
7182;BME280;3632;42.724;23.298;2023-04-02T09:47:59;94630.91;;;15.43;46.79
7182;BME280;3632;42.724;23.298;2023-04-02T09:50:29;94632.91;;;15.17;47.01
7182;BME280;3632;42.724;23.298;2023-04-02T09:52:57;94646.69;;;15.32;46.59
7182;BME280;3632;42.724;23.298;2023-04-02T09:55:27;94684.56;;;15.14;46.73
7182;BME280;3632;42.724;23.298;2023-04-02T09:58:11;94624.56;;;15.23;46.97
7182;BME280;3632;42.724;23.298;2023-04-02T10:00:40;94507.91;;;14.70;46.71
7182;BME280;3632;42.724;23.298;2023-04-02T10:03:22;94612.41;;;16.03;47.42
7182;BME280;3632;42.724;23.298;2023-04-02T10:06:03;94520.97;;;16.08;45.51
7182;BME280;3632;42.724;23.298;2023-04-02T10:08:31;94620.41;;;16.30;46.05
7182;BME280;3632;42.724;23.298;2023-04-02T10:11:01;94185.53;;;13.86;47.24
7182;BME280;3632;42.724;23.298;2023-04-02T10:13:30;94353.19;;;14.23;44.65
7182;BME280;3632;42.724;23.298;2023-04-02T10:16:02;94447.09;;;15.26;44.85
7182;BME280;3632;42.724;23.298;2023-04-02T10:18:41;94337.00;;;14.46;45.15
7182;BME280;3632;42.724;23.298;2023-04-02T10:21:11;94556.47;;;16.50;45.02
7182;BME280;3632;42.724;23.298;2023-04-02T10:23:39;94551.03;;;16.45;44.50
7182;BME280;3632;42.724;23.298;2023-04-02T10:26:28;94593.53;;;17.45;43.30
7182;BME280;3632;42.724;23.298;2023-04-02T10:29:14;94593.81;;;17.79;42.00
7182;BME280;3632;42.724;23.298;2023-04-02T10:31:51;94611.28;;;17.99;42.63
7182;BME280;3632;42.724;23.298;2023-04-02T10:34:23;94585.53;;;18.20;43.88
7182;BME280;3632;42.724;23.298;2023-04-02T10:36:55;94359.31;;;16.28;41.76
7182;BME280;3632;42.724;23.298;2023-04-02T10:39:30;94480.78;;;16.97;41.26
7182;BME280;3632;42.724;23.298;2023-04-02T10:42:09;94595.72;;;17.92;41.82
7182;BME280;3632;42.724;23.298;2023-04-02T10:44:49;94554.88;;;18.10;42.28
7182;BME280;3632;42.724;23.298;2023-04-02T10:47:28;94592.63;;;18.54;40.84
7182;BME280;3632;42.724;23.298;2023-04-02T10:50:06;94550.75;;;17.95;42.97
7182;BME280;3632;42.724;23.298;2023-04-02T10:52:38;94580.84;;;19.22;45.36
7182;BME280;3632;42.724;23.298;2023-04-02T10:55:14;94582.91;;;19.05;42.13
7182;BME280;3632;42.724;23.298;2023-04-02T10:57:44;94581.75;;;19.14;43.05
7182;BME280;3632;42.724;23.298;2023-04-02T11:00:20;94495.31;;;18.76;41.46
7182;BME280;3632;42.724;23.298;2023-04-02T11:02:52;94054.66;;;15.81;41.81
7182;BME280;3632;42.724;23.298;2023-04-02T11:05:26;94577.94;;;19.38;43.87
7182;BME280;3632;42.724;23.298;2023-04-02T11:08:01;94574.91;;;19.55;40.30
7182;BME280;3632;42.724;23.298;2023-04-02T11:10:30;94527.72;;;19.12;40.41
7182;BME280;3632;42.724;23.298;2023-04-02T11:13:04;94379.19;;;18.20;42.46
7182;BME280;3632;42.724;23.298;2023-04-02T11:15:35;94575.16;;;19.39;39.24
7182;BME280;3632;42.724;23.298;2023-04-02T11:18:03;94574.28;;;19.53;39.64
7182;BME280;3632;42.724;23.298;2023-04-02T11:21:01;94459.66;;;18.58;39.63
7182;BME280;3632;42.724;23.298;2023-04-02T11:23:31;94498.28;;;18.73;39.73
7182;BME280;3632;42.724;23.298;2023-04-02T11:26:30;94471.88;;;19.11;38.31
7182;BME280;3632;42.724;23.298;2023-04-02T11:29:14;94360.38;;;18.54;40.16
7182;BME280;3632;42.724;23.298;2023-04-02T11:31:43;94637.56;;;19.36;40.17
7182;BME280;3632;42.724;23.298;2023-04-02T11:34:14;94567.09;;;19.90;37.64
7182;BME280;3632;42.724;23.298;2023-04-02T11:37:00;94565.81;;;19.73;38.60
7182;BME280;3632;42.724;23.298;2023-04-02T11:39:49;94554.81;;;20.18;39.54
7182;BME280;3632;42.724;23.298;2023-04-02T11:42:24;94524.81;;;20.30;36.83
7182;BME280;3632;42.724;23.298;2023-04-02T11:44:55;94551.13;;;20.54;36.59
7182;BME280;3632;42.724;23.298;2023-04-02T11:47:25;93973.50;;;16.92;35.83
7182;BME280;3632;42.724;23.298;2023-04-02T11:50:03;94216.53;;;17.31;37.24
7182;BME280;3632;42.724;23.298;2023-04-02T11:52:34;94548.72;;;20.52;36.64
7182;BME280;3632;42.724;23.298;2023-04-02T11:55:17;94294.84;;;18.14;36.79
7182;BME280;3632;42.724;23.298;2023-04-02T11:58:27;94549.63;;;20.25;37.78
7182;BME280;3632;42.724;23.298;2023-04-02T12:07:34;94526.88;;;21.52;34.64
7182;BME280;3632;42.724;23.298;2023-04-02T12:10:16;94259.94;;;19.59;34.06
7182;BME280;3632;42.724;23.298;2023-04-02T12:12:44;94550.09;;;21.20;34.01
7182;BME280;3632;42.724;23.298;2023-04-02T12:15:31;94177.63;;;19.03;35.08
7182;BME280;3632;42.724;23.298;2023-04-02T12:18:03;94420.06;;;21.36;33.05
7182;BME280;3632;42.724;23.298;2023-04-02T12:20:31;94557.56;;;21.68;32.64
7182;BME280;3632;42.724;23.298;2023-04-02T12:23:00;94555.69;;;21.17;33.40
7182;BME280;3632;42.724;23.298;2023-04-02T12:25:29;94540.88;;;21.95;33.73
7182;BME280;3632;42.724;23.298;2023-04-02T12:28:14;94461.53;;;21.74;33.58
7182;BME280;3632;42.724;23.298;2023-04-02T12:30:45;94555.00;;;22.68;33.81
7182;BME280;3632;42.724;23.298;2023-04-02T12:33:27;94544.84;;;22.92;34.55
7182;BME280;3632;42.724;23.298;2023-04-02T12:35:57;94534.69;;;22.59;33.55
7182;BME280;3632;42.724;23.298;2023-04-02T12:38:27;94535.38;;;21.72;32.77
7182;BME280;3632;42.724;23.298;2023-04-02T12:40:56;94599.50;;;21.06;35.43
7182;BME280;3632;42.724;23.298;2023-04-02T12:43:24;94532.97;;;20.80;36.24
7182;BME280;3632;42.724;23.298;2023-04-02T12:45:52;94530.59;;;20.85;38.33
7182;BME280;3632;42.724;23.298;2023-04-02T12:48:21;94427.34;;;20.95;39.46
7182;BME280;3632;42.724;23.298;2023-04-02T12:50:48;94530.03;;;21.60;35.95
7182;BME280;3632;42.724;23.298;2023-04-02T12:53:19;94534.34;;;21.79;37.78
7182;BME280;3632;42.724;23.298;2023-04-02T12:55:50;94514.78;;;21.83;34.28
7182;BME280;3632;42.724;23.298;2023-04-02T12:58:23;94518.38;;;22.52;33.81
7182;BME280;3632;42.724;23.298;2023-04-02T13:00:50;94514.03;;;22.95;32.31
7182;BME280;3632;42.724;23.298;2023-04-02T13:03:19;94512.44;;;22.94;32.29
7182;BME280;3632;42.724;23.298;2023-04-02T13:05:51;94480.97;;;22.28;32.66
7182;BME280;3632;42.724;23.298;2023-04-02T13:08:22;94561.13;;;22.49;32.68
7182;BME280;3632;42.724;23.298;2023-04-02T13:10:57;94481.22;;;22.26;32.98
7182;BME280;3632;42.724;23.298;2023-04-02T13:13:29;94507.97;;;23.01;33.63
7182;BME280;3632;42.724;23.298;2023-04-02T13:16:04;94090.06;;;20.30;31.60
7182;BME280;3632;42.724;23.298;2023-04-02T13:18:32;94124.66;;;20.98;32.49
7182;BME280;3632;42.724;23.298;2023-04-02T13:21:01;94358.00;;;21.73;31.10
7182;BME280;3632;42.724;23.298;2023-04-02T13:23:35;94457.00;;;23.18;30.35
7182;BME280;3632;42.724;23.298;2023-04-02T13:26:14;94494.16;;;23.62;31.81
7182;BME280;3632;42.724;23.298;2023-04-02T13:28:53;94545.25;;;24.04;29.23
7182;BME280;3632;42.724;23.298;2023-04-02T13:31:21;93931.28;;;20.49;29.78
7182;BME280;3632;42.724;23.298;2023-04-02T13:33:48;94431.72;;;23.44;29.56
7182;BME280;3632;42.724;23.298;2023-04-02T13:36:15;94350.81;;;22.24;29.30
7182;BME280;3632;42.724;23.298;2023-04-02T13:38:42;94043.84;;;20.02;30.27
7182;BME280;3632;42.724;23.298;2023-04-02T13:41:18;94225.31;;;21.76;29.79
7182;BME280;3632;42.724;23.298;2023-04-02T13:43:47;94488.09;;;23.50;28.73
7182;BME280;3632;42.724;23.298;2023-04-02T13:46:18;94071.78;;;21.06;28.77
7182;BME280;3632;42.724;23.298;2023-04-02T13:48:46;94483.31;;;23.47;30.53
7182;BME280;3632;42.724;23.298;2023-04-02T13:51:14;94372.53;;;23.09;29.25
7182;BME280;3632;42.724;23.298;2023-04-02T13:53:43;94223.78;;;21.93;28.20
7182;BME280;3632;42.724;23.298;2023-04-02T13:56:12;94484.91;;;24.37;28.48